sensor_id;sensor_type;location;lat;lon;timestamp;pressure;altitude;pressure_sealevel;temperature;humidity
12219;BME280;6172;42.646;23.344;2023-06-22T00:02:17;95012.59;;;17.39;100.00
12219;BME280;6172;42.646;23.344;2023-06-22T00:04:44;95008.84;;;17.33;100.00
12219;BME280;6172;42.646;23.344;2023-06-22T00:07:11;95016.41;;;17.42;100.00
12219;BME280;6172;42.646;23.344;2023-06-22T00:09:38;95021.28;;;17.38;100.00
12219;BME280;6172;42.646;23.344;2023-06-22T00:12:07;95019.13;;;17.32;100.00
12219;BME280;6172;42.646;23.344;2023-06-22T00:14:34;95025.78;;;17.44;100.00
12219;BME280;6172;42.646;23.344;2023-06-22T00:17:02;95015.34;;;17.39;100.00
12219;BME280;6172;42.646;23.344;2023-06-22T00:19:29;95016.94;;;17.27;100.00
12219;BME280;6172;42.646;23.344;2023-06-22T00:21:56;95007.34;;;17.32;100.00
12219;BME280;6172;42.646;23.344;2023-06-22T00:24:28;95010.72;;;17.36;100.00
12219;BME280;6172;42.646;23.344;2023-06-22T00:26:55;94994.00;;;17.30;100.00
12219;BME280;6172;42.646;23.344;2023-06-22T00:29:26;94989.47;;;17.37;100.00
12219;BME280;6172;42.646;23.344;2023-06-22T00:31:53;94987.66;;;17.43;100.00
12219;BME280;6172;42.646;23.344;2023-06-22T00:34:20;94985.19;;;17.57;100.00
12219;BME280;6172;42.646;23.344;2023-06-22T00:36:47;94987.34;;;17.62;100.00
12219;BME280;6172;42.646;23.344;2023-06-22T00:39:14;94989.00;;;17.60;100.00
12219;BME280;6172;42.646;23.344;2023-06-22T00:41:41;94992.28;;;17.46;100.00
12219;BME280;6172;42.646;23.344;2023-06-22T00:44:07;94995.41;;;17.13;100.00
12219;BME280;6172;42.646;23.344;2023-06-22T00:46:36;94994.16;;;17.05;100.00
12219;BME280;6172;42.646;23.344;2023-06-22T00:49:03;94983.50;;;17.16;100.00
12219;BME280;6172;42.646;23.344;2023-06-22T00:51:31;94979.59;;;17.05;100.00
12219;BME280;6172;42.646;23.344;2023-06-22T00:53:58;94989.28;;;17.09;100.00
12219;BME280;6172;42.646;23.344;2023-06-22T00:56:26;94996.56;;;17.03;100.00
12219;BME280;6172;42.646;23.344;2023-06-22T00:58:55;94999.50;;;16.87;100.00
12219;BME280;6172;42.646;23.344;2023-06-22T01:01:22;94984.75;;;16.81;100.00
12219;BME280;6172;42.646;23.344;2023-06-22T01:03:51;95000.19;;;16.79;100.00
12219;BME280;6172;42.646;23.344;2023-06-22T01:06:29;95002.50;;;16.80;100.00
12219;BME280;6172;42.646;23.344;2023-06-22T01:09:12;95010.50;;;16.87;100.00
12219;BME280;6172;42.646;23.344;2023-06-22T01:11:45;95003.72;;;16.79;100.00
12219;BME280;6172;42.646;23.344;2023-06-22T01:14:19;94999.94;;;16.86;100.00
12219;BME280;6172;42.646;23.344;2023-06-22T01:16:50;94999.84;;;16.77;100.00
12219;BME280;6172;42.646;23.344;2023-06-22T01:19:34;95004.97;;;16.53;100.00
12219;BME280;6172;42.646;23.344;2023-06-22T01:22:03;94997.41;;;16.45;100.00
12219;BME280;6172;42.646;23.344;2023-06-22T01:24:48;95015.41;;;16.58;100.00
12219;BME280;6172;42.646;23.344;2023-06-22T01:27:32;95010.56;;;16.62;100.00
12219;BME280;6172;42.646;23.344;2023-06-22T01:30:03;95018.84;;;16.62;100.00
12219;BME280;6172;42.646;23.344;2023-06-22T01:32:34;95017.41;;;16.45;100.00
12219;BME280;6172;42.646;23.344;2023-06-22T01:35:05;95015.00;;;16.47;100.00
12219;BME280;6172;42.646;23.344;2023-06-22T01:37:34;95028.75;;;16.47;100.00
12219;BME280;6172;42.646;23.344;2023-06-22T01:40:04;95017.13;;;16.31;100.00
12219;BME280;6172;42.646;23.344;2023-06-22T01:42:32;95015.50;;;16.08;100.00
12219;BME280;6172;42.646;23.344;2023-06-22T01:44:59;95020.31;;;16.17;100.00
12219;BME280;6172;42.646;23.344;2023-06-22T01:47:28;95021.66;;;16.00;100.00
12219;BME280;6172;42.646;23.344;2023-06-22T01:49:55;95025.16;;;16.13;100.00
12219;BME280;6172;42.646;23.344;2023-06-22T01:52:22;95026.28;;;15.90;100.00
12219;BME280;6172;42.646;23.344;2023-06-22T01:54:49;95028.56;;;15.79;100.00
12219;BME280;6172;42.646;23.344;2023-06-22T01:57:16;95030.91;;;15.93;100.00
12219;BME280;6172;42.646;23.344;2023-06-22T01:59:49;95034.06;;;15.79;100.00
12219;BME280;6172;42.646;23.344;2023-06-22T02:02:21;95030.44;;;15.82;100.00
12219;BME280;6172;42.646;23.344;2023-06-22T02:04:58;95031.44;;;15.88;100.00
12219;BME280;6172;42.646;23.344;2023-06-22T02:07:31;95036.50;;;15.77;100.00
12219;BME280;6172;42.646;23.344;2023-06-22T02:10:00;95041.22;;;15.77;100.00
12219;BME280;6172;42.646;23.344;2023-06-22T02:12:29;95034.06;;;15.79;100.00
12219;BME280;6172;42.646;23.344;2023-06-22T02:14:57;95047.63;;;15.86;100.00
12219;BME280;6172;42.646;23.344;2023-06-22T02:17:26;95028.25;;;15.77;100.00
12219;BME280;6172;42.646;23.344;2023-06-22T02:19:53;95021.88;;;15.93;100.00
12219;BME280;6172;42.646;23.344;2023-06-22T02:22:22;95028.13;;;15.81;100.00
12219;BME280;6172;42.646;23.344;2023-06-22T02:24:49;95028.56;;;15.79;100.00
12219;BME280;6172;42.646;23.344;2023-06-22T02:27:16;95034.31;;;15.85;100.00
12219;BME280;6172;42.646;23.344;2023-06-22T02:29:43;95034.28;;;15.72;100.00
12219;BME280;6172;42.646;23.344;2023-06-22T02:32:10;95038.59;;;15.73;100.00
12219;BME280;6172;42.646;23.344;2023-06-22T02:34:37;95035.25;;;15.66;100.00
12219;BME280;6172;42.646;23.344;2023-06-22T02:37:04;95032.38;;;15.69;100.00
12219;BME280;6172;42.646;23.344;2023-06-22T02:39:33;95038.09;;;15.62;100.00
12219;BME280;6172;42.646;23.344;2023-06-22T02:42:00;95035.97;;;15.54;100.00
12219;BME280;6172;42.646;23.344;2023-06-22T02:44:27;95039.38;;;15.45;100.00
12219;BME280;6172;42.646;23.344;2023-06-22T02:46:54;95043.91;;;15.52;100.00
12219;BME280;6172;42.646;23.344;2023-06-22T02:49:21;95038.75;;;15.66;100.00
12219;BME280;6172;42.646;23.344;2023-06-22T02:51:48;95045.63;;;15.74;100.00
12219;BME280;6172;42.646;23.344;2023-06-22T02:54:17;95049.03;;;15.78;100.00
12219;BME280;6172;42.646;23.344;2023-06-22T02:56:45;95051.53;;;15.73;100.00
12219;BME280;6172;42.646;23.344;2023-06-22T02:59:13;95045.78;;;15.67;100.00
12219;BME280;6172;42.646;23.344;2023-06-22T03:01:40;95045.00;;;15.67;100.00
12219;BME280;6172;42.646;23.344;2023-06-22T03:04:08;95048.97;;;15.66;100.00
12219;BME280;6172;42.646;23.344;2023-06-22T03:06:35;95057.09;;;15.69;100.00
12219;BME280;6172;42.646;23.344;2023-06-22T03:09:06;95045.44;;;15.65;100.00
12219;BME280;6172;42.646;23.344;2023-06-22T03:11:33;95047.28;;;15.84;100.00
12219;BME280;6172;42.646;23.344;2023-06-22T03:14:02;95057.38;;;15.75;100.00
12219;BME280;6172;42.646;23.344;2023-06-22T03:16:29;95053.50;;;15.72;100.00
12219;BME280;6172;42.646;23.344;2023-06-22T03:18:56;95059.78;;;15.85;100.00
12219;BME280;6172;42.646;23.344;2023-06-22T03:21:23;95066.28;;;15.91;100.00
12219;BME280;6172;42.646;23.344;2023-06-22T03:23:50;95072.13;;;15.93;100.00
12219;BME280;6172;42.646;23.344;2023-06-22T03:26:17;95067.38;;;15.94;100.00
12219;BME280;6172;42.646;23.344;2023-06-22T03:28:45;95077.84;;;16.11;100.00
12219;BME280;6172;42.646;23.344;2023-06-22T03:31:13;95085.31;;;15.98;100.00
12219;BME280;6172;42.646;23.344;2023-06-22T03:33:40;95070.81;;;15.98;100.00
12219;BME280;6172;42.646;23.344;2023-06-22T03:36:07;95077.75;;;16.15;100.00
12219;BME280;6172;42.646;23.344;2023-06-22T03:38:35;95091.38;;;16.18;100.00
12219;BME280;6172;42.646;23.344;2023-06-22T03:41:01;95092.38;;;16.12;100.00
12219;BME280;6172;42.646;23.344;2023-06-22T03:43:28;95078.63;;;16.12;100.00
12219;BME280;6172;42.646;23.344;2023-06-22T03:45:55;95083.13;;;16.18;100.00
12219;BME280;6172;42.646;23.344;2023-06-22T03:48:24;95081.16;;;16.19;100.00
12219;BME280;6172;42.646;23.344;2023-06-22T03:50:50;95084.00;;;16.15;100.00
12219;BME280;6172;42.646;23.344;2023-06-22T03:53:17;95084.44;;;16.51;100.00
12219;BME280;6172;42.646;23.344;2023-06-22T03:55:49;95088.19;;;16.45;100.00
12219;BME280;6172;42.646;23.344;2023-06-22T03:58:16;95099.28;;;16.54;100.00
12219;BME280;6172;42.646;23.344;2023-06-22T04:00:44;95092.94;;;16.69;100.00
12219;BME280;6172;42.646;23.344;2023-06-22T04:03:12;95093.81;;;16.66;100.00
12219;BME280;6172;42.646;23.344;2023-06-22T04:05:42;95100.63;;;16.74;100.00
12219;BME280;6172;42.646;23.344;2023-06-22T04:08:09;95113.84;;;16.79;100.00
12219;BME280;6172;42.646;23.344;2023-06-22T04:10:36;95105.69;;;16.76;100.00
12219;BME280;6172;42.646;23.344;2023-06-22T04:13:03;95104.44;;;16.89;100.00
12219;BME280;6172;42.646;23.344;2023-06-22T04:15:31;95092.41;;;16.96;100.00
12219;BME280;6172;42.646;23.344;2023-06-22T04:17:58;95081.00;;;17.19;100.00
12219;BME280;6172;42.646;23.344;2023-06-22T04:20:25;95081.25;;;17.12;100.00
12219;BME280;6172;42.646;23.344;2023-06-22T04:22:54;95073.34;;;17.36;100.00
12219;BME280;6172;42.646;23.344;2023-06-22T04:25:23;95068.84;;;17.51;100.00
12219;BME280;6172;42.646;23.344;2023-06-22T04:27:50;95059.16;;;17.59;100.00
12219;BME280;6172;42.646;23.344;2023-06-22T04:30:17;95063.69;;;17.74;100.00
12219;BME280;6172;42.646;23.344;2023-06-22T04:32:44;95053.78;;;17.86;100.00
12219;BME280;6172;42.646;23.344;2023-06-22T04:35:23;95051.94;;;17.83;100.00
12219;BME280;6172;42.646;23.344;2023-06-22T04:37:50;95053.97;;;17.48;100.00
12219;BME280;6172;42.646;23.344;2023-06-22T04:40:38;95057.47;;;17.61;100.00
12219;BME280;6172;42.646;23.344;2023-06-22T04:43:07;95057.97;;;17.69;100.00
12219;BME280;6172;42.646;23.344;2023-06-22T04:45:35;95061.63;;;17.66;100.00
12219;BME280;6172;42.646;23.344;2023-06-22T04:48:04;95062.38;;;17.45;100.00
12219;BME280;6172;42.646;23.344;2023-06-22T04:50:32;95066.97;;;17.48;100.00
12219;BME280;6172;42.646;23.344;2023-06-22T04:52:59;95065.28;;;17.63;100.00
12219;BME280;6172;42.646;23.344;2023-06-22T04:55:26;95061.50;;;17.69;100.00
12219;BME280;6172;42.646;23.344;2023-06-22T04:57:54;95068.47;;;17.83;100.00
12219;BME280;6172;42.646;23.344;2023-06-22T05:00:21;95072.31;;;18.16;100.00
12219;BME280;6172;42.646;23.344;2023-06-22T05:02:49;95079.09;;;18.24;100.00
12219;BME280;6172;42.646;23.344;2023-06-22T05:05:16;95084.19;;;18.34;100.00
12219;BME280;6172;42.646;23.344;2023-06-22T05:07:44;95076.16;;;18.49;100.00
12219;BME280;6172;42.646;23.344;2023-06-22T05:10:12;95079.13;;;18.63;100.00
12219;BME280;6172;42.646;23.344;2023-06-22T05:12:40;95076.84;;;18.71;100.00
12219;BME280;6172;42.646;23.344;2023-06-22T05:15:09;95083.91;;;18.72;100.00
12219;BME280;6172;42.646;23.344;2023-06-22T05:17:36;95073.00;;;18.77;100.00
12219;BME280;6172;42.646;23.344;2023-06-22T05:20:09;95071.84;;;18.96;100.00
12219;BME280;6172;42.646;23.344;2023-06-22T05:22:36;95066.41;;;18.84;100.00
12219;BME280;6172;42.646;23.344;2023-06-22T05:25:04;95072.44;;;19.18;100.00
12219;BME280;6172;42.646;23.344;2023-06-22T05:27:31;95076.31;;;19.30;100.00
12219;BME280;6172;42.646;23.344;2023-06-22T05:29:58;95071.13;;;19.32;100.00
12219;BME280;6172;42.646;23.344;2023-06-22T05:32:27;95074.16;;;19.52;100.00
12219;BME280;6172;42.646;23.344;2023-06-22T05:34:54;95077.41;;;19.60;100.00
12219;BME280;6172;42.646;23.344;2023-06-22T05:37:20;95080.47;;;19.52;100.00
12219;BME280;6172;42.646;23.344;2023-06-22T05:39:49;95075.69;;;19.80;100.00
12219;BME280;6172;42.646;23.344;2023-06-22T05:42:17;95086.56;;;19.93;100.00
12219;BME280;6172;42.646;23.344;2023-06-22T05:44:44;95081.03;;;19.93;100.00
12219;BME280;6172;42.646;23.344;2023-06-22T05:47:12;95093.00;;;20.08;100.00
12219;BME280;6172;42.646;23.344;2023-06-22T05:49:40;95101.88;;;20.21;100.00
12219;BME280;6172;42.646;23.344;2023-06-22T05:52:07;95097.72;;;20.25;100.00
12219;BME280;6172;42.646;23.344;2023-06-22T05:54:34;95103.78;;;19.88;100.00
12219;BME280;6172;42.646;23.344;2023-06-22T05:57:01;95091.00;;;19.99;100.00
12219;BME280;6172;42.646;23.344;2023-06-22T05:59:29;95099.78;;;20.48;100.00
12219;BME280;6172;42.646;23.344;2023-06-22T06:01:55;95097.56;;;21.26;100.00
12219;BME280;6172;42.646;23.344;2023-06-22T06:04:22;95086.25;;;22.35;100.00
12219;BME280;6172;42.646;23.344;2023-06-22T06:06:51;95082.84;;;23.89;100.00
12219;BME280;6172;42.646;23.344;2023-06-22T06:09:17;95077.28;;;25.19;87.43
12219;BME280;6172;42.646;23.344;2023-06-22T06:11:45;95070.31;;;27.04;73.99
12219;BME280;6172;42.646;23.344;2023-06-22T06:14:12;95072.47;;;24.78;81.44
12219;BME280;6172;42.646;23.344;2023-06-22T06:16:38;95059.63;;;25.33;83.92
12219;BME280;6172;42.646;23.344;2023-06-22T06:19:06;95057.50;;;28.39;63.89
12219;BME280;6172;42.646;23.344;2023-06-22T06:21:33;95052.28;;;30.17;53.60
12219;BME280;6172;42.646;23.344;2023-06-22T06:24:02;95054.13;;;29.29;53.58
12219;BME280;6172;42.646;23.344;2023-06-22T06:26:29;95056.81;;;30.01;51.70
12219;BME280;6172;42.646;23.344;2023-06-22T06:29:00;95051.84;;;29.28;55.03
12219;BME280;6172;42.646;23.344;2023-06-22T06:31:27;95054.69;;;30.07;51.65
12219;BME280;6172;42.646;23.344;2023-06-22T06:33:56;95050.75;;;29.79;53.16
12219;BME280;6172;42.646;23.344;2023-06-22T06:36:23;95058.41;;;29.60;52.06
12219;BME280;6172;42.646;23.344;2023-06-22T06:38:50;95054.38;;;30.48;49.45
12219;BME280;6172;42.646;23.344;2023-06-22T06:41:20;95048.72;;;30.67;46.83
12219;BME280;6172;42.646;23.344;2023-06-22T06:43:47;95038.06;;;29.72;50.76
12219;BME280;6172;42.646;23.344;2023-06-22T06:46:17;95045.72;;;31.48;47.23
12219;BME280;6172;42.646;23.344;2023-06-22T06:48:44;95043.94;;;31.97;43.14
12219;BME280;6172;42.646;23.344;2023-06-22T06:51:11;95043.91;;;29.74;50.03
12219;BME280;6172;42.646;23.344;2023-06-22T06:53:38;95044.06;;;29.39;50.13
12219;BME280;6172;42.646;23.344;2023-06-22T06:56:05;95030.47;;;30.23;47.86
12219;BME280;6172;42.646;23.344;2023-06-22T06:58:33;95032.91;;;30.32;47.69
12219;BME280;6172;42.646;23.344;2023-06-22T07:01:01;95025.88;;;30.38;47.72
12219;BME280;6172;42.646;23.344;2023-06-22T07:03:28;95043.66;;;28.47;52.77
12219;BME280;6172;42.646;23.344;2023-06-22T07:05:55;95025.13;;;30.01;51.40
12219;BME280;6172;42.646;23.344;2023-06-22T07:08:22;95024.47;;;29.76;52.00
12219;BME280;6172;42.646;23.344;2023-06-22T07:10:50;95022.66;;;30.16;49.96
12219;BME280;6172;42.646;23.344;2023-06-22T07:13:17;95026.41;;;30.37;49.50
12219;BME280;6172;42.646;23.344;2023-06-22T07:15:46;95027.72;;;31.64;45.84
12219;BME280;6172;42.646;23.344;2023-06-22T07:18:13;95024.56;;;31.03;48.03
12219;BME280;6172;42.646;23.344;2023-06-22T07:20:40;95029.50;;;30.02;48.65
12219;BME280;6172;42.646;23.344;2023-06-22T07:23:07;95027.78;;;29.14;53.40
12219;BME280;6172;42.646;23.344;2023-06-22T07:25:33;95030.00;;;30.69;49.00
12219;BME280;6172;42.646;23.344;2023-06-22T07:28:02;95029.47;;;29.65;51.29
12219;BME280;6172;42.646;23.344;2023-06-22T07:30:31;95034.28;;;29.88;50.38
12219;BME280;6172;42.646;23.344;2023-06-22T07:33:00;95031.78;;;28.94;55.92
12219;BME280;6172;42.646;23.344;2023-06-22T07:35:29;95025.53;;;29.92;52.12
12219;BME280;6172;42.646;23.344;2023-06-22T07:37:56;95031.78;;;30.54;50.10
12219;BME280;6172;42.646;23.344;2023-06-22T07:40:23;95032.38;;;30.33;48.70
12219;BME280;6172;42.646;23.344;2023-06-22T07:42:50;95032.47;;;31.69;46.45
12219;BME280;6172;42.646;23.344;2023-06-22T07:45:18;95031.03;;;32.02;46.12
12219;BME280;6172;42.646;23.344;2023-06-22T07:47:45;95033.41;;;31.98;45.44
12219;BME280;6172;42.646;23.344;2023-06-22T07:50:14;95037.47;;;32.23;44.73
12219;BME280;6172;42.646;23.344;2023-06-22T07:52:41;95036.28;;;32.93;42.94
12219;BME280;6172;42.646;23.344;2023-06-22T07:55:08;95037.72;;;33.28;41.70
12219;BME280;6172;42.646;23.344;2023-06-22T07:57:35;95028.78;;;33.16;41.17
12219;BME280;6172;42.646;23.344;2023-06-22T08:00:03;95024.53;;;33.58;40.29
12219;BME280;6172;42.646;23.344;2023-06-22T08:02:36;95033.47;;;32.52;42.39
12219;BME280;6172;42.646;23.344;2023-06-22T08:05:04;95032.03;;;32.79;41.33
12219;BME280;6172;42.646;23.344;2023-06-22T08:07:34;95034.19;;;32.32;42.18
12219;BME280;6172;42.646;23.344;2023-06-22T08:10:03;95022.78;;;30.74;43.94
12219;BME280;6172;42.646;23.344;2023-06-22T08:12:30;95013.31;;;31.42;45.29
12219;BME280;6172;42.646;23.344;2023-06-22T08:14:57;95018.00;;;32.32;42.29
12219;BME280;6172;42.646;23.344;2023-06-22T08:17:24;95008.50;;;33.05;40.58
12219;BME280;6172;42.646;23.344;2023-06-22T08:19:51;95004.09;;;32.68;41.75
12219;BME280;6172;42.646;23.344;2023-06-22T08:22:19;95008.88;;;33.01;40.37
12219;BME280;6172;42.646;23.344;2023-06-22T08:24:47;95010.94;;;32.39;41.04
12219;BME280;6172;42.646;23.344;2023-06-22T08:27:14;95003.41;;;32.21;41.62
12219;BME280;6172;42.646;23.344;2023-06-22T08:29:42;95002.09;;;30.53;45.97
12219;BME280;6172;42.646;23.344;2023-06-22T08:32:10;94995.56;;;30.31;45.74
12219;BME280;6172;42.646;23.344;2023-06-22T08:34:37;94998.13;;;29.79;49.12
12219;BME280;6172;42.646;23.344;2023-06-22T08:37:07;95000.53;;;29.88;49.71
12219;BME280;6172;42.646;23.344;2023-06-22T08:39:34;95003.53;;;29.53;50.95
12219;BME280;6172;42.646;23.344;2023-06-22T08:42:03;95008.03;;;28.71;54.54
12219;BME280;6172;42.646;23.344;2023-06-22T08:44:30;95003.53;;;28.87;51.81
12219;BME280;6172;42.646;23.344;2023-06-22T08:46:57;95020.41;;;28.57;54.39
12219;BME280;6172;42.646;23.344;2023-06-22T08:49:24;95018.09;;;28.26;59.11
12219;BME280;6172;42.646;23.344;2023-06-22T08:51:51;95017.53;;;28.33;58.82
12219;BME280;6172;42.646;23.344;2023-06-22T08:54:21;95014.03;;;28.21;59.69
12219;BME280;6172;42.646;23.344;2023-06-22T08:56:48;95003.75;;;28.65;57.05
12219;BME280;6172;42.646;23.344;2023-06-22T08:59:17;94997.13;;;29.77;55.50
12219;BME280;6172;42.646;23.344;2023-06-22T09:01:44;94991.50;;;29.95;53.84
12219;BME280;6172;42.646;23.344;2023-06-22T09:04:14;94996.91;;;29.93;51.26
12219;BME280;6172;42.646;23.344;2023-06-22T09:06:41;94991.16;;;29.67;51.58
12219;BME280;6172;42.646;23.344;2023-06-22T09:09:10;94984.94;;;30.24;51.40
12219;BME280;6172;42.646;23.344;2023-06-22T09:11:37;94981.19;;;30.67;51.26
12219;BME280;6172;42.646;23.344;2023-06-22T09:14:04;94982.78;;;30.62;45.43
12219;BME280;6172;42.646;23.344;2023-06-22T09:16:34;94994.06;;;30.30;45.86
12219;BME280;6172;42.646;23.344;2023-06-22T09:19:01;94989.31;;;30.38;45.72
12219;BME280;6172;42.646;23.344;2023-06-22T09:21:28;94987.38;;;29.41;47.35
12219;BME280;6172;42.646;23.344;2023-06-22T09:23:56;94983.13;;;30.08;45.50
12219;BME280;6172;42.646;23.344;2023-06-22T09:26:23;94987.53;;;30.04;45.08
12219;BME280;6172;42.646;23.344;2023-06-22T09:28:50;94979.91;;;30.81;43.70
12219;BME280;6172;42.646;23.344;2023-06-22T09:31:17;94986.19;;;30.74;43.87
12219;BME280;6172;42.646;23.344;2023-06-22T09:33:52;94995.09;;;30.59;45.83
12219;BME280;6172;42.646;23.344;2023-06-22T09:36:19;94993.81;;;31.18;45.75
12219;BME280;6172;42.646;23.344;2023-06-22T09:38:47;94988.50;;;31.01;41.71
12219;BME280;6172;42.646;23.344;2023-06-22T09:41:14;94999.44;;;31.18;41.54
12219;BME280;6172;42.646;23.344;2023-06-22T09:43:41;94991.66;;;31.37;42.28
12219;BME280;6172;42.646;23.344;2023-06-22T09:46:08;94994.19;;;31.87;37.13
12219;BME280;6172;42.646;23.344;2023-06-22T09:48:35;95002.66;;;31.74;38.96
12219;BME280;6172;42.646;23.344;2023-06-22T09:51:03;94988.44;;;32.26;38.99
12219;BME280;6172;42.646;23.344;2023-06-22T09:53:30;94996.19;;;31.53;39.90
12219;BME280;6172;42.646;23.344;2023-06-22T09:55:57;94994.75;;;32.19;38.29
12219;BME280;6172;42.646;23.344;2023-06-22T09:58:24;94987.13;;;32.27;38.27
12219;BME280;6172;42.646;23.344;2023-06-22T10:00:50;94972.47;;;32.70;37.67
12219;BME280;6172;42.646;23.344;2023-06-22T10:03:19;94969.22;;;32.86;37.48
12219;BME280;6172;42.646;23.344;2023-06-22T10:05:48;94965.25;;;33.10;36.09
12219;BME280;6172;42.646;23.344;2023-06-22T10:08:16;94975.69;;;33.58;35.55
12219;BME280;6172;42.646;23.344;2023-06-22T10:10:43;94961.81;;;33.32;35.54
12219;BME280;6172;42.646;23.344;2023-06-22T10:13:10;94962.63;;;33.75;35.92
12219;BME280;6172;42.646;23.344;2023-06-22T10:15:37;94964.19;;;33.20;36.18
12219;BME280;6172;42.646;23.344;2023-06-22T10:18:04;94966.72;;;32.75;36.51
12219;BME280;6172;42.646;23.344;2023-06-22T10:20:31;94959.94;;;31.83;39.23
12219;BME280;6172;42.646;23.344;2023-06-22T10:22:58;94961.31;;;30.91;40.17
12219;BME280;6172;42.646;23.344;2023-06-22T10:25:27;94957.44;;;31.20;38.80
12219;BME280;6172;42.646;23.344;2023-06-22T10:27:54;94955.13;;;31.05;39.02
12219;BME280;6172;42.646;23.344;2023-06-22T10:30:20;94958.25;;;30.76;39.76
12219;BME280;6172;42.646;23.344;2023-06-22T10:32:49;94960.88;;;31.13;40.33
12219;BME280;6172;42.646;23.344;2023-06-22T10:35:16;94957.59;;;31.48;38.08
12219;BME280;6172;42.646;23.344;2023-06-22T10:37:43;94950.28;;;31.19;39.03
12219;BME280;6172;42.646;23.344;2023-06-22T10:40:11;94950.69;;;30.84;39.28
12219;BME280;6172;42.646;23.344;2023-06-22T10:42:40;94952.47;;;31.59;38.14
12219;BME280;6172;42.646;23.344;2023-06-22T10:45:08;94947.41;;;31.58;39.30
12219;BME280;6172;42.646;23.344;2023-06-22T10:47:35;94947.63;;;31.60;38.11
12219;BME280;6172;42.646;23.344;2023-06-22T10:50:03;94941.81;;;31.91;39.21
12219;BME280;6172;42.646;23.344;2023-06-22T10:52:30;94948.91;;;32.05;37.75
12219;BME280;6172;42.646;23.344;2023-06-22T10:54:57;94941.22;;;31.59;39.12
12219;BME280;6172;42.646;23.344;2023-06-22T10:57:24;94940.56;;;31.53;38.23
12219;BME280;6172;42.646;23.344;2023-06-22T10:59:52;94941.06;;;31.78;37.17
12219;BME280;6172;42.646;23.344;2023-06-22T11:02:19;94933.53;;;31.60;37.67
12219;BME280;6172;42.646;23.344;2023-06-22T11:04:46;94937.59;;;31.38;38.32
12219;BME280;6172;42.646;23.344;2023-06-22T11:07:14;94943.22;;;31.85;38.47
12219;BME280;6172;42.646;23.344;2023-06-22T11:09:43;94939.94;;;31.94;38.67
12219;BME280;6172;42.646;23.344;2023-06-22T11:12:09;94940.91;;;31.63;39.52
12219;BME280;6172;42.646;23.344;2023-06-22T11:14:36;94940.91;;;31.63;38.25
12219;BME280;6172;42.646;23.344;2023-06-22T11:17:05;94934.94;;;31.66;38.31
12219;BME280;6172;42.646;23.344;2023-06-22T11:19:32;94929.16;;;31.72;38.82
12219;BME280;6172;42.646;23.344;2023-06-22T11:21:59;94933.56;;;31.47;39.14
12219;BME280;6172;42.646;23.344;2023-06-22T11:24:26;94923.72;;;31.27;40.72
12219;BME280;6172;42.646;23.344;2023-06-22T11:26:53;94911.88;;;31.42;38.98
12219;BME280;6172;42.646;23.344;2023-06-22T11:29:20;94908.66;;;30.60;39.15
12219;BME280;6172;42.646;23.344;2023-06-22T11:31:46;94916.13;;;31.35;39.48
12219;BME280;6172;42.646;23.344;2023-06-22T11:34:15;94912.34;;;31.33;38.95
12219;BME280;6172;42.646;23.344;2023-06-22T11:36:42;94909.75;;;31.22;39.39
12219;BME280;6172;42.646;23.344;2023-06-22T11:39:09;94909.75;;;31.09;39.64
12219;BME280;6172;42.646;23.344;2023-06-22T11:41:39;94915.28;;;31.01;39.29
12219;BME280;6172;42.646;23.344;2023-06-22T11:44:06;94913.03;;;30.74;38.73
12219;BME280;6172;42.646;23.344;2023-06-22T11:46:33;94916.78;;;30.63;39.01
12219;BME280;6172;42.646;23.344;2023-06-22T11:49:01;94906.44;;;30.26;39.66
12219;BME280;6172;42.646;23.344;2023-06-22T11:51:29;94907.22;;;30.40;39.25
12219;BME280;6172;42.646;23.344;2023-06-22T11:53:57;94902.22;;;30.33;41.42
12219;BME280;6172;42.646;23.344;2023-06-22T11:56:24;94891.28;;;30.29;40.75
12219;BME280;6172;42.646;23.344;2023-06-22T11:58:52;94885.47;;;29.96;41.06
12219;BME280;6172;42.646;23.344;2023-06-22T12:01:19;94891.59;;;29.07;41.41
12219;BME280;6172;42.646;23.344;2023-06-22T12:03:47;94898.44;;;29.30;42.02
12219;BME280;6172;42.646;23.344;2023-06-22T12:06:14;94892.06;;;29.48;42.39
12219;BME280;6172;42.646;23.344;2023-06-22T12:08:42;94896.97;;;29.42;43.45
12219;BME280;6172;42.646;23.344;2023-06-22T12:11:09;94894.78;;;29.72;44.62
12219;BME280;6172;42.646;23.344;2023-06-22T12:13:35;94896.28;;;29.92;43.08
12219;BME280;6172;42.646;23.344;2023-06-22T12:16:02;94904.16;;;29.93;41.88
12219;BME280;6172;42.646;23.344;2023-06-22T12:18:29;94902.31;;;29.96;42.06
12219;BME280;6172;42.646;23.344;2023-06-22T12:20:56;94901.34;;;29.62;44.11
12219;BME280;6172;42.646;23.344;2023-06-22T12:23:23;94904.34;;;29.27;44.39
12219;BME280;6172;42.646;23.344;2023-06-22T12:25:51;94909.88;;;29.14;44.92
12219;BME280;6172;42.646;23.344;2023-06-22T12:28:18;94908.66;;;29.09;47.06
12219;BME280;6172;42.646;23.344;2023-06-22T12:30:45;94918.03;;;28.69;49.08
12219;BME280;6172;42.646;23.344;2023-06-22T12:33:11;94925.25;;;28.35;51.21
12219;BME280;6172;42.646;23.344;2023-06-22T12:35:38;94935.28;;;28.25;51.78
12219;BME280;6172;42.646;23.344;2023-06-22T12:38:05;94956.25;;;27.78;57.25
12219;BME280;6172;42.646;23.344;2023-06-22T12:40:33;94957.69;;;27.49;61.31
12219;BME280;6172;42.646;23.344;2023-06-22T12:43:02;94959.13;;;27.15;90.39
12219;BME280;6172;42.646;23.344;2023-06-22T12:45:29;94962.97;;;27.07;90.50
12219;BME280;6172;42.646;23.344;2023-06-22T12:47:58;94964.63;;;26.53;100.00
12219;BME280;6172;42.646;23.344;2023-06-22T12:50:26;94969.22;;;25.95;100.00
12219;BME280;6172;42.646;23.344;2023-06-22T12:52:53;94981.38;;;26.14;99.25
12219;BME280;6172;42.646;23.344;2023-06-22T12:55:20;94992.50;;;25.53;100.00
12219;BME280;6172;42.646;23.344;2023-06-22T12:57:47;94995.59;;;25.83;99.89
12219;BME280;6172;42.646;23.344;2023-06-22T13:00:17;94983.25;;;25.25;100.00